Kittery Point, ME (03905)

9:25 PM EDT on June 27, 2017 (GMT -0400)
KPV | | Change Station

Elev 40 ft 43.08 °N, 70.71 °W | Updated 23 seconds ago

Rain
Rain
57.6 °F
Feels Like 57.6 °F
N
0.0
Wind Variable Wind from WSW
Gusts 0.0 mph

Today
High -- | Low -- °F
--% Chance of Precip.
Yesterday
High -- | Low -- °F
Precip. -- in
Pressure 29.97 in
Visibility 5.0 miles
Clouds Few 400 ft
Scattered Clouds 4600 ft
Mostly Cloudy 6000 ft
Overcast 7500 ft
Dew Point 57 °F
Humidity 99%
Rainfall 0.35 in
Snow Depth Not available.
5:05 AM 8:26 PM
Waxing Crescent, 21% visible
SPECI KPSM 280109Z 29007KT 5SM -TSRA FEW004 SCT046 BKN060 OVC075 15/11 A2996 RMK AO2A TSB02 RAB02 SLP147
Pressure 29.97 in
Visibility 5.0 miles
Clouds Few 400 ft
Scattered Clouds 4600 ft
Mostly Cloudy 6000 ft
Overcast 7500 ft
Dew Point 57 °F
Humidity 99%
Rainfall 0.35 in
Snow Depth Not available.
5:05 AM 8:26 PM
Waxing Crescent, 21% visible
SPECI KPSM 280109Z 29007KT 5SM -TSRA FEW004 SCT046 BKN060 OVC075 15/11 A2996 RMK AO2A TSB02 RAB02 SLP147

Get Severe Weather Alerts

Thanks for signing up!

Be on the lookout for a verification email in your inbox.

You'll start receiving the daily forecast at 6 AM.

×

10-Day Weather Forecast

Almanac

Astronomy

Jun. 27, 2017 Rise Set
Actual Time
Civil Twilight
Nautical Twilight
Astronomical Twilight
Moon
Length of Visible Light
Length of Day
Tomorrow will be .
, % of the Moon is Illuminated

Today's Extremes

State Highs State Lows

Community

WunderPhotos

Category 6

Welcome to Category 6. This is the collective home for Weather Underground's featured writeups by Dr. Jeff Masters (right), Bob Henson (left), Chris Burt, and other regular contributors.

Nearby

Air Quality

  Air Quality AQ Index Pollutant
Not available.

Snow Depth

Station Depth Elevation

Earthquake Activity

City Distance Mag. Time & Date
Minimum magnitude displayed is 2.5.

Coastal Water Temperatures

Place Temperature

Stations

Nearby Weather Stations

Station Location Temp. Windchill Dew Point Humidity Wind Precip. Elev Updated Type
                   

Watches & Warnings

There are currently no watches in effect.